sensor_id;sensor_type;location;lat;lon;timestamp;pressure;altitude;pressure_sealevel;temperature;humidity
59487;BME280;45298;54.918;73.504;2023-04-07T00:02:26;99748.69;;;-0.19;76.10
59487;BME280;45298;54.918;73.504;2023-04-07T00:04:58;99734.16;;;-0.31;75.87
59487;BME280;45298;54.918;73.504;2023-04-07T00:07:27;99760.81;;;-0.18;76.18
59487;BME280;45298;54.918;73.504;2023-04-07T00:09:56;99776.47;;;-0.18;76.28
59487;BME280;45298;54.918;73.504;2023-04-07T00:12:25;99756.72;;;-0.30;76.46
59487;BME280;45298;54.918;73.504;2023-04-07T00:14:54;99725.16;;;-0.55;76.42
59487;BME280;45298;54.918;73.504;2023-04-07T00:17:23;99791.22;;;-0.17;76.78
59487;BME280;45298;54.918;73.504;2023-04-07T00:19:52;99772.47;;;-0.35;78.03
59487;BME280;45298;54.918;73.504;2023-04-07T00:22:21;99771.72;;;-0.40;77.73
59487;BME280;45298;54.918;73.504;2023-04-07T00:24:50;99794.09;;;-0.29;77.94
59487;BME280;45298;54.918;73.504;2023-04-07T00:27:20;99761.34;;;-0.43;78.22
59487;BME280;45298;54.918;73.504;2023-04-07T00:29:50;99793.28;;;-0.32;78.62
59487;BME280;45298;54.918;73.504;2023-04-07T00:32:22;99772.88;;;-0.55;77.90
59487;BME280;45298;54.918;73.504;2023-04-07T00:34:51;99819.56;;;-0.44;77.69
59487;BME280;45298;54.918;73.504;2023-04-07T00:37:20;99814.41;;;-0.47;78.38
59487;BME280;45298;54.918;73.504;2023-04-07T00:39:50;99825.72;;;-0.47;78.43
59487;BME280;45298;54.918;73.504;2023-04-07T00:42:19;99739.19;;;-1.07;77.62
59487;BME280;45298;54.918;73.504;2023-04-07T00:44:48;99725.44;;;-1.13;78.09
59487;BME280;45298;54.918;73.504;2023-04-07T00:47:17;99793.47;;;-0.86;78.22
59487;BME280;45298;54.918;73.504;2023-04-07T00:49:46;99818.34;;;-0.70;78.46
59487;BME280;45298;54.918;73.504;2023-04-07T00:52:16;99802.06;;;-0.81;78.61
59487;BME280;45298;54.918;73.504;2023-04-07T00:54:46;99803.88;;;-0.86;79.41
59487;BME280;45298;54.918;73.504;2023-04-07T00:57:15;99791.94;;;-0.97;79.68
59487;BME280;45298;54.918;73.504;2023-04-07T00:59:44;99842.88;;;-0.82;80.47
59487;BME280;45298;54.918;73.504;2023-04-07T01:02:17;99839.59;;;-0.92;80.95
59487;BME280;45298;54.918;73.504;2023-04-07T01:07:23;99824.47;;;-1.21;81.60
59487;BME280;45298;54.918;73.504;2023-04-07T01:10:04;99852.38;;;-1.29;82.54
59487;BME280;45298;54.918;73.504;2023-04-07T01:12:59;99855.09;;;-1.37;82.27
59487;BME280;45298;54.918;73.504;2023-04-07T01:15:32;99767.50;;;-1.91;82.83
59487;BME280;45298;54.918;73.504;2023-04-07T01:18:12;99844.06;;;-1.53;82.70
59487;BME280;45298;54.918;73.504;2023-04-07T01:20:47;99779.66;;;-1.92;82.98
59487;BME280;45298;54.918;73.504;2023-04-07T01:24:00;99641.47;;;-2.77;82.76
59487;BME280;45298;54.918;73.504;2023-04-07T01:26:23;99783.22;;;-1.99;82.98
59487;BME280;45298;54.918;73.504;2023-04-07T01:31:32;99786.72;;;-2.00;82.68
59487;BME280;45298;54.918;73.504;2023-04-07T01:34:03;99846.94;;;-1.70;82.18
59487;BME280;45298;54.918;73.504;2023-04-07T01:36:32;99867.75;;;-1.70;82.84
59487;BME280;45298;54.918;73.504;2023-04-07T01:39:01;99801.69;;;-2.18;82.11
59487;BME280;45298;54.918;73.504;2023-04-07T01:41:31;99881.53;;;-1.65;82.07
59487;BME280;45298;54.918;73.504;2023-04-07T01:44:01;99868.75;;;-1.79;81.92
59487;BME280;45298;54.918;73.504;2023-04-07T01:46:31;99886.78;;;-1.68;81.48
59487;BME280;45298;54.918;73.504;2023-04-07T01:49:00;99883.28;;;-1.65;82.16
59487;BME280;45298;54.918;73.504;2023-04-07T01:51:31;99878.03;;;-1.64;82.48
59487;BME280;45298;54.918;73.504;2023-04-07T01:54:01;99906.53;;;-1.55;82.47
59487;BME280;45298;54.918;73.504;2023-04-07T01:56:30;99928.88;;;-1.41;82.12
59487;BME280;45298;54.918;73.504;2023-04-07T01:59:03;99853.31;;;-1.93;82.97
59487;BME280;45298;54.918;73.504;2023-04-07T02:01:32;99933.34;;;-1.49;82.84
59487;BME280;45298;54.918;73.504;2023-04-07T02:07:00;99844.03;;;-2.09;82.69
59487;BME280;45298;54.918;73.504;2023-04-07T02:09:37;99929.06;;;-1.54;82.29
59487;BME280;45298;54.918;73.504;2023-04-07T02:12:10;99912.00;;;-1.75;81.67
59487;BME280;45298;54.918;73.504;2023-04-07T02:14:48;99946.50;;;-1.60;81.59
59487;BME280;45298;54.918;73.504;2023-04-07T02:17:18;99900.81;;;-1.82;81.07
59487;BME280;45298;54.918;73.504;2023-04-07T02:19:48;99955.94;;;-1.55;81.45
59487;BME280;45298;54.918;73.504;2023-04-07T02:22:17;99924.84;;;-1.62;81.05
59487;BME280;45298;54.918;73.504;2023-04-07T02:24:46;99957.53;;;-1.44;80.65
59487;BME280;45298;54.918;73.504;2023-04-07T02:27:16;99949.94;;;-1.58;80.23
59487;BME280;45298;54.918;73.504;2023-04-07T02:29:45;99942.28;;;-1.69;80.18
59487;BME280;45298;54.918;73.504;2023-04-07T02:32:13;99981.00;;;-1.49;79.92
59487;BME280;45298;54.918;73.504;2023-04-07T02:34:42;99979.38;;;-1.56;79.58
59487;BME280;45298;54.918;73.504;2023-04-07T02:37:11;99914.00;;;-1.94;79.64
59487;BME280;45298;54.918;73.504;2023-04-07T02:39:40;99963.97;;;-1.72;79.66
59487;BME280;45298;54.918;73.504;2023-04-07T02:42:09;99979.63;;;-1.76;80.13
59487;BME280;45298;54.918;73.504;2023-04-07T02:44:38;99989.34;;;-1.91;79.15
59487;BME280;45298;54.918;73.504;2023-04-07T02:47:08;100000.72;;;-2.01;78.53
59487;BME280;45298;54.918;73.504;2023-04-07T02:49:39;99908.63;;;-2.55;77.49
59487;BME280;45298;54.918;73.504;2023-04-07T02:52:08;99974.09;;;-2.22;77.67
59487;BME280;45298;54.918;73.504;2023-04-07T02:54:40;99918.25;;;-2.65;76.34
59487;BME280;45298;54.918;73.504;2023-04-07T02:57:10;99984.63;;;-2.34;76.06
59487;BME280;45298;54.918;73.504;2023-04-07T02:59:41;99963.16;;;-2.52;76.53
59487;BME280;45298;54.918;73.504;2023-04-07T03:02:11;100019.03;;;-2.14;76.64
59487;BME280;45298;54.918;73.504;2023-04-07T03:04:41;100006.22;;;-2.29;76.77
59487;BME280;45298;54.918;73.504;2023-04-07T03:07:10;100022.69;;;-2.30;76.30
59487;BME280;45298;54.918;73.504;2023-04-07T03:09:40;100015.84;;;-2.44;76.25
59487;BME280;45298;54.918;73.504;2023-04-07T03:12:10;100072.91;;;-2.31;76.31
59487;BME280;45298;54.918;73.504;2023-04-07T03:14:39;100066.03;;;-2.38;75.96
59487;BME280;45298;54.918;73.504;2023-04-07T03:17:10;100081.66;;;-2.45;75.12
59487;BME280;45298;54.918;73.504;2023-04-07T03:19:39;100081.72;;;-2.51;75.41
59487;BME280;45298;54.918;73.504;2023-04-07T03:22:08;100081.72;;;-2.51;75.28
59487;BME280;45298;54.918;73.504;2023-04-07T03:24:43;100057.72;;;-2.84;74.84
59487;BME280;45298;54.918;73.504;2023-04-07T03:27:13;100060.34;;;-2.89;74.51
59487;BME280;45298;54.918;73.504;2023-04-07T03:29:46;100087.19;;;-2.85;74.22
59487;BME280;45298;54.918;73.504;2023-04-07T03:32:16;100085.41;;;-2.83;74.41
59487;BME280;45298;54.918;73.504;2023-04-07T03:34:45;100017.44;;;-3.39;73.61
59487;BME280;45298;54.918;73.504;2023-04-07T03:37:14;100026.94;;;-3.43;73.71
59487;BME280;45298;54.918;73.504;2023-04-07T03:39:43;100097.69;;;-3.07;73.64
59487;BME280;45298;54.918;73.504;2023-04-07T03:42:24;100130.47;;;-2.96;73.97
59487;BME280;45298;54.918;73.504;2023-04-07T03:45:00;100108.06;;;-3.10;73.40
59487;BME280;45298;54.918;73.504;2023-04-07T03:47:31;100127.09;;;-3.14;73.38
59487;BME280;45298;54.918;73.504;2023-04-07T03:50:02;100153.88;;;-3.07;73.23
59487;BME280;45298;54.918;73.504;2023-04-07T03:52:36;100062.44;;;-3.57;73.19
59487;BME280;45298;54.918;73.504;2023-04-07T03:55:16;100139.25;;;-3.24;72.71
59487;BME280;45298;54.918;73.504;2023-04-07T03:57:45;100168.59;;;-3.08;72.59
59487;BME280;45298;54.918;73.504;2023-04-07T04:00:18;100159.19;;;-3.37;72.21
59487;BME280;45298;54.918;73.504;2023-04-07T04:03:02;100147.94;;;-3.39;72.10
59487;BME280;45298;54.918;73.504;2023-04-07T04:05:32;100170.47;;;-3.53;71.23
59487;BME280;45298;54.918;73.504;2023-04-07T04:08:02;100180.84;;;-3.56;71.26
59487;BME280;45298;54.918;73.504;2023-04-07T04:10:33;100160.97;;;-3.68;70.90
59487;BME280;45298;54.918;73.504;2023-04-07T04:13:02;100177.41;;;-3.60;70.92
59487;BME280;45298;54.918;73.504;2023-04-07T04:15:34;100206.75;;;-3.41;70.87
59487;BME280;45298;54.918;73.504;2023-04-07T04:18:06;100195.56;;;-3.63;70.08
59487;BME280;45298;54.918;73.504;2023-04-07T04:20:36;100173.09;;;-3.83;69.83
59487;BME280;45298;54.918;73.504;2023-04-07T06:04:46;100359.66;;;-2.60;62.49
59487;BME280;45298;54.918;73.504;2023-04-07T06:07:17;100402.88;;;-2.31;62.71
59487;BME280;45298;54.918;73.504;2023-04-07T06:09:46;100396.72;;;-2.08;61.88
59487;BME280;45298;54.918;73.504;2023-04-07T06:12:15;100381.16;;;-2.11;61.75
59487;BME280;45298;54.918;73.504;2023-04-07T06:14:51;100360.38;;;-2.18;61.86
59487;BME280;45298;54.918;73.504;2023-04-07T06:17:21;100403.59;;;-2.01;60.40
59487;BME280;45298;54.918;73.504;2023-04-07T06:19:53;100388.09;;;-2.18;61.23
59487;BME280;45298;54.918;73.504;2023-04-07T06:22:22;100414.84;;;-1.94;60.50
59487;BME280;45298;54.918;73.504;2023-04-07T06:24:50;100382.13;;;-2.39;58.51
59487;BME280;45298;54.918;73.504;2023-04-07T06:27:20;100442.72;;;-2.29;58.03
59487;BME280;45298;54.918;73.504;2023-04-07T06:29:49;100418.50;;;-2.51;57.53
59487;BME280;45298;54.918;73.504;2023-04-07T06:32:21;100432.31;;;-2.28;58.11
59487;BME280;45298;54.918;73.504;2023-04-07T06:34:50;100401.09;;;-2.23;58.86
59487;BME280;45298;54.918;73.504;2023-04-07T06:37:19;100397.50;;;-1.95;59.28
59487;BME280;45298;54.918;73.504;2023-04-07T06:39:48;100393.13;;;-1.83;58.74
59487;BME280;45298;54.918;73.504;2023-04-07T06:42:17;100432.00;;;-1.58;58.96
59487;BME280;45298;54.918;73.504;2023-04-07T06:44:58;100372.19;;;-1.59;59.52
59487;BME280;45298;54.918;73.504;2023-04-07T06:47:27;100434.59;;;-1.58;57.75
59487;BME280;45298;54.918;73.504;2023-04-07T06:49:56;100421.59;;;-1.61;58.00
59487;BME280;45298;54.918;73.504;2023-04-07T06:52:25;100447.59;;;-1.52;56.95
59487;BME280;45298;54.918;73.504;2023-04-07T06:54:53;100419.97;;;-1.80;56.57
59487;BME280;45298;54.918;73.504;2023-04-07T06:57:22;100450.31;;;-1.79;57.10
59487;BME280;45298;54.918;73.504;2023-04-07T06:59:51;100439.88;;;-1.67;57.54
59487;BME280;45298;54.918;73.504;2023-04-07T07:02:20;100422.44;;;-1.53;56.44
59487;BME280;45298;54.918;73.504;2023-04-07T07:04:50;100446.69;;;-1.47;56.10
59487;BME280;45298;54.918;73.504;2023-04-07T07:07:19;100467.53;;;-1.57;56.13
59487;BME280;45298;54.918;73.504;2023-04-07T07:09:48;100458.09;;;-1.75;55.50
59487;BME280;45298;54.918;73.504;2023-04-07T07:12:16;100439.88;;;-1.75;56.06
59487;BME280;45298;54.918;73.504;2023-04-07T07:14:45;100490.88;;;-1.41;56.49
59487;BME280;45298;54.918;73.504;2023-04-07T07:17:14;100505.59;;;-1.37;56.42
59487;BME280;45298;54.918;73.504;2023-04-07T07:19:43;100483.91;;;-1.39;56.50
59487;BME280;45298;54.918;73.504;2023-04-07T07:22:12;100473.53;;;-1.41;56.82
59487;BME280;45298;54.918;73.504;2023-04-07T07:24:43;100507.25;;;-1.20;56.54
59487;BME280;45298;54.918;73.504;2023-04-07T07:27:14;100479.59;;;-1.40;55.82
59487;BME280;45298;54.918;73.504;2023-04-07T07:29:45;100504.69;;;-1.28;56.18
59487;BME280;45298;54.918;73.504;2023-04-07T07:32:16;100500.41;;;-1.40;56.92
59487;BME280;45298;54.918;73.504;2023-04-07T07:34:45;100506.56;;;-1.54;55.84
59487;BME280;45298;54.918;73.504;2023-04-07T07:37:14;100532.41;;;-1.18;55.76
59487;BME280;45298;54.918;73.504;2023-04-07T07:39:42;100510.88;;;-1.49;54.89
59487;BME280;45298;54.918;73.504;2023-04-07T07:42:11;100528.13;;;-1.30;54.74
59487;BME280;45298;54.918;73.504;2023-04-07T07:44:40;100502.13;;;-1.39;55.30
59487;BME280;45298;54.918;73.504;2023-04-07T07:47:09;100524.59;;;-1.19;54.91
59487;BME280;45298;54.918;73.504;2023-04-07T07:49:37;100550.53;;;-1.07;55.06
59487;BME280;45298;54.918;73.504;2023-04-07T07:52:07;100495.09;;;-1.22;54.59
59487;BME280;45298;54.918;73.504;2023-04-07T07:54:36;100483.78;;;-1.16;55.02
59487;BME280;45298;54.918;73.504;2023-04-07T07:57:05;100516.72;;;-1.09;54.63
59487;BME280;45298;54.918;73.504;2023-04-07T07:59:34;100530.50;;;-0.93;54.13
59487;BME280;45298;54.918;73.504;2023-04-07T08:02:03;100508.84;;;-1.04;54.79
59487;BME280;45298;54.918;73.504;2023-04-07T08:04:32;100549.38;;;-0.63;54.29
59487;BME280;45298;54.918;73.504;2023-04-07T08:07:01;100561.56;;;-0.68;55.03
59487;BME280;45298;54.918;73.504;2023-04-07T08:09:30;100556.25;;;-0.57;53.32
59487;BME280;45298;54.918;73.504;2023-04-07T08:12:01;100517.53;;;-1.05;52.69
59487;BME280;45298;54.918;73.504;2023-04-07T08:14:34;100509.91;;;-1.33;52.49
59487;BME280;45298;54.918;73.504;2023-04-07T08:17:06;100522.97;;;-1.45;52.50
59487;BME280;45298;54.918;73.504;2023-04-07T08:19:34;100483.16;;;-1.57;52.97
59487;BME280;45298;54.918;73.504;2023-04-07T08:22:03;100533.34;;;-1.33;52.61
59487;BME280;45298;54.918;73.504;2023-04-07T08:24:32;100552.97;;;-0.82;52.96
59487;BME280;45298;54.918;73.504;2023-04-07T08:27:00;100538.22;;;-0.79;52.89
59487;BME280;45298;54.918;73.504;2023-04-07T08:29:29;100534.84;;;-0.92;51.83
59487;BME280;45298;54.918;73.504;2023-04-07T08:31:59;100549.56;;;-0.89;52.21
59487;BME280;45298;54.918;73.504;2023-04-07T08:34:28;100553.78;;;-0.71;51.84
59487;BME280;45298;54.918;73.504;2023-04-07T08:36:56;100518.22;;;-0.75;51.80
59487;BME280;45298;54.918;73.504;2023-04-07T08:39:25;100569.53;;;-0.89;49.91
59487;BME280;45298;54.918;73.504;2023-04-07T08:41:54;100554.09;;;-1.20;50.27
59487;BME280;45298;54.918;73.504;2023-04-07T08:44:24;100562.78;;;-1.25;50.33
59487;BME280;45298;54.918;73.504;2023-04-07T08:46:56;100574.88;;;-1.16;50.93
59487;BME280;45298;54.918;73.504;2023-04-07T08:49:27;100604.31;;;-1.03;49.78
59487;BME280;45298;54.918;73.504;2023-04-07T08:51:59;100388.13;;;-2.21;49.70
59487;BME280;45298;54.918;73.504;2023-04-07T08:54:31;100464.19;;;-1.80;49.53
59487;BME280;45298;54.918;73.504;2023-04-07T08:57:01;100586.97;;;-1.01;49.76
59487;BME280;45298;54.918;73.504;2023-04-07T08:59:31;100611.25;;;-0.99;49.78
59487;BME280;45298;54.918;73.504;2023-04-07T09:02:01;100585.31;;;-1.17;49.43
59487;BME280;45298;54.918;73.504;2023-04-07T09:04:32;100578.34;;;-1.14;50.24
59487;BME280;45298;54.918;73.504;2023-04-07T09:07:01;100577.53;;;-1.24;48.90
59487;BME280;45298;54.918;73.504;2023-04-07T09:09:30;100588.75;;;-1.11;49.44
59487;BME280;45298;54.918;73.504;2023-04-07T09:11:59;100607.81;;;-1.07;49.27
59487;BME280;45298;54.918;73.504;2023-04-07T09:14:28;100600.13;;;-1.32;48.59
59487;BME280;45298;54.918;73.504;2023-04-07T09:16:57;100633.97;;;-1.38;48.27
59487;BME280;45298;54.918;73.504;2023-04-07T09:19:27;100619.25;;;-1.41;48.37
59487;BME280;45298;54.918;73.504;2023-04-07T09:21:58;100531.84;;;-1.87;48.96
59487;BME280;45298;54.918;73.504;2023-04-07T09:24:28;100586.34;;;-1.53;48.19
59487;BME280;45298;54.918;73.504;2023-04-07T09:27:18;100622.75;;;-1.49;48.00
59487;BME280;45298;54.918;73.504;2023-04-07T09:29:47;100616.69;;;-1.61;47.72
59487;BME280;45298;54.918;73.504;2023-04-07T09:32:34;100634.94;;;-1.65;47.63
59487;BME280;45298;54.918;73.504;2023-04-07T09:35:06;100632.34;;;-1.73;48.04
59487;BME280;45298;54.918;73.504;2023-04-07T09:37:35;100624.53;;;-1.70;47.63
59487;BME280;45298;54.918;73.504;2023-04-07T09:40:05;100630.56;;;-1.62;48.65
59487;BME280;45298;54.918;73.504;2023-04-07T09:42:34;100638.41;;;-1.73;47.78
59487;BME280;45298;54.918;73.504;2023-04-07T09:45:06;100645.31;;;-1.64;47.56
59487;BME280;45298;54.918;73.504;2023-04-07T09:47:35;100644.47;;;-1.85;46.34
59487;BME280;45298;54.918;73.504;2023-04-07T09:50:05;100636.72;;;-1.99;47.18
59487;BME280;45298;54.918;73.504;2023-04-07T09:52:55;100664.41;;;-1.80;46.94
59487;BME280;45298;54.918;73.504;2023-04-07T09:55:24;100636.69;;;-2.00;46.68
59487;BME280;45298;54.918;73.504;2023-04-07T09:57:54;100642.78;;;-1.95;47.02
59487;BME280;45298;54.918;73.504;2023-04-07T10:00:23;100649.69;;;-2.00;47.11
59487;BME280;45298;54.918;73.504;2023-04-07T10:02:53;100664.44;;;-1.91;46.99
59487;BME280;45298;54.918;73.504;2023-04-07T10:05:23;100654.03;;;-1.93;46.83
59487;BME280;45298;54.918;73.504;2023-04-07T10:07:52;100671.38;;;-1.84;46.25
59487;BME280;45298;54.918;73.504;2023-04-07T10:10:22;100695.63;;;-1.79;45.87
59487;BME280;45298;54.918;73.504;2023-04-07T10:12:53;100652.31;;;-2.02;46.30
59487;BME280;45298;54.918;73.504;2023-04-07T10:15:24;100706.88;;;-1.82;46.64
59487;BME280;45298;54.918;73.504;2023-04-07T10:17:54;100481.72;;;-3.05;46.18
59487;BME280;45298;54.918;73.504;2023-04-07T10:20:25;100710.34;;;-1.58;47.09
59487;BME280;45298;54.918;73.504;2023-04-07T10:23:03;100675.72;;;-1.91;45.44
59487;BME280;45298;54.918;73.504;2023-04-07T10:25:38;100744.19;;;-1.70;45.19
59487;BME280;45298;54.918;73.504;2023-04-07T10:28:09;100710.38;;;-2.00;44.81
59487;BME280;45298;54.918;73.504;2023-04-07T10:30:40;100721.63;;;-2.10;44.65
59487;BME280;45298;54.918;73.504;2023-04-07T10:33:09;100714.69;;;-2.11;45.64
59487;BME280;45298;54.918;73.504;2023-04-07T10:38:33;100717.28;;;-2.03;45.25
59487;BME280;45298;54.918;73.504;2023-04-07T10:41:32;100735.50;;;-2.06;44.59
59487;BME280;45298;54.918;73.504;2023-04-07T10:44:07;100717.31;;;-2.09;44.76
59487;BME280;45298;54.918;73.504;2023-04-07T10:49:16;100716.38;;;-2.36;44.81
59487;BME280;45298;54.918;73.504;2023-04-07T10:54:42;100699.91;;;-2.51;44.43
59487;BME280;45298;54.918;73.504;2023-04-07T10:57:12;100740.66;;;-2.28;44.56
59487;BME280;45298;54.918;73.504;2023-04-07T11:02:39;100778.81;;;-2.19;44.94
59487;BME280;45298;54.918;73.504;2023-04-07T11:05:19;100750.19;;;-2.24;45.10
59487;BME280;45298;54.918;73.504;2023-04-07T11:07:51;100754.50;;;-2.23;45.21
59487;BME280;45298;54.918;73.504;2023-04-07T11:10:22;100782.22;;;-2.25;44.58
59487;BME280;45298;54.918;73.504;2023-04-07T11:13:03;100678.19;;;-2.82;44.74
59487;BME280;45298;54.918;73.504;2023-04-07T11:15:34;100767.50;;;-2.35;44.48
59487;BME280;45298;54.918;73.504;2023-04-07T11:20:46;100694.53;;;-3.04;43.61
59487;BME280;45298;54.918;73.504;2023-04-07T11:23:16;100768.25;;;-2.66;44.29
59487;BME280;45298;54.918;73.504;2023-04-07T11:25:48;100801.22;;;-2.55;44.00
59487;BME280;45298;54.918;73.504;2023-04-07T11:28:18;100806.28;;;-2.76;43.44
59487;BME280;45298;54.918;73.504;2023-04-07T11:30:51;100780.28;;;-2.83;44.01
59487;BME280;45298;54.918;73.504;2023-04-07T11:33:30;100814.09;;;-2.77;43.81
59487;BME280;45298;54.918;73.504;2023-04-07T11:36:01;100807.97;;;-2.87;43.66
59487;BME280;45298;54.918;73.504;2023-04-07T11:38:36;100833.97;;;-2.82;44.04
59487;BME280;45298;54.918;73.504;2023-04-07T11:41:11;100817.41;;;-3.05;43.45
59487;BME280;45298;54.918;73.504;2023-04-07T11:43:40;100832.97;;;-3.05;43.29
59487;BME280;45298;54.918;73.504;2023-04-07T11:46:17;100813.00;;;-3.15;43.25
59487;BME280;45298;54.918;73.504;2023-04-07T11:48:46;100787.78;;;-3.35;43.28
59487;BME280;45298;54.918;73.504;2023-04-07T11:51:24;100805.19;;;-3.18;43.48
59487;BME280;45298;54.918;73.504;2023-04-07T11:53:55;100776.47;;;-3.46;42.46
59487;BME280;45298;54.918;73.504;2023-04-07T11:56:25;100842.50;;;-3.02;42.66
59487;BME280;45298;54.918;73.504;2023-04-07T11:58:56;100825.94;;;-3.18;42.21
59487;BME280;45298;54.918;73.504;2023-04-07T12:01:40;100824.09;;;-3.35;42.01
59487;BME280;45298;54.918;73.504;2023-04-07T12:04:12;100829.31;;;-3.30;41.90
59487;BME280;45298;54.918;73.504;2023-04-07T12:06:44;100745.97;;;-3.76;42.41
59487;BME280;45298;54.918;73.504;2023-04-07T12:09:27;100854.44;;;-3.23;42.25
59487;BME280;45298;54.918;73.504;2023-04-07T12:11:57;100856.16;;;-3.26;42.66
59487;BME280;45298;54.918;73.504;2023-04-07T12:14:27;100819.69;;;-3.43;42.16
59487;BME280;45298;54.918;73.504;2023-04-07T12:17:00;100844.72;;;-3.49;41.62
59487;BME280;45298;54.918;73.504;2023-04-07T12:19:31;100835.94;;;-3.68;41.60
59487;BME280;45298;54.918;73.504;2023-04-07T12:22:03;100854.06;;;-3.66;41.89
59487;BME280;45298;54.918;73.504;2023-04-07T12:24:32;100767.97;;;-4.27;41.50
59487;BME280;45298;54.918;73.504;2023-04-07T12:27:01;100824.34;;;-4.01;41.72
59487;BME280;45298;54.918;73.504;2023-04-07T12:29:32;100850.38;;;-3.91;42.21
59487;BME280;45298;54.918;73.504;2023-04-07T12:32:01;100859.97;;;-3.81;42.59
59487;BME280;45298;54.918;73.504;2023-04-07T12:34:30;100859.13;;;-3.83;42.68
59487;BME280;45298;54.918;73.504;2023-04-07T12:36:59;100872.06;;;-3.83;42.83
59487;BME280;45298;54.918;73.504;2023-04-07T12:39:32;100810.31;;;-4.23;42.28
59487;BME280;45298;54.918;73.504;2023-04-07T12:42:01;100860.63;;;-4.04;42.44
59487;BME280;45298;54.918;73.504;2023-04-07T12:44:30;100833.59;;;-4.28;42.03
59487;BME280;45298;54.918;73.504;2023-04-07T12:46:59;100884.66;;;-4.16;41.62
59487;BME280;45298;54.918;73.504;2023-04-07T12:49:28;100895.94;;;-4.11;42.20
59487;BME280;45298;54.918;73.504;2023-04-07T12:52:00;100884.63;;;-4.19;42.24
59487;BME280;45298;54.918;73.504;2023-04-07T12:54:29;100901.06;;;-4.15;42.24
59487;BME280;45298;54.918;73.504;2023-04-07T12:56:58;100805.31;;;-4.78;42.10
59487;BME280;45298;54.918;73.504;2023-04-07T12:59:28;100886.16;;;-4.35;42.90
59487;BME280;45298;54.918;73.504;2023-04-07T13:01:59;100898.25;;;-4.35;42.30
59487;BME280;45298;54.918;73.504;2023-04-07T13:04:28;100892.00;;;-4.50;42.80
59487;BME280;45298;54.918;73.504;2023-04-07T13:06:58;100930.22;;;-4.32;42.77
59487;BME280;45298;54.918;73.504;2023-04-07T13:09:26;100909.94;;;-4.64;42.01
59487;BME280;45298;54.918;73.504;2023-04-07T13:11:55;100943.72;;;-4.55;42.24
59487;BME280;45298;54.918;73.504;2023-04-07T13:14:25;100910.59;;;-4.77;41.85
59487;BME280;45298;54.918;73.504;2023-04-07T13:16:54;100929.72;;;-4.67;42.27
59487;BME280;45298;54.918;73.504;2023-04-07T13:19:23;100948.69;;;-4.70;42.32
59487;BME280;45298;54.918;73.504;2023-04-07T13:21:52;100934.66;;;-4.84;42.02
59487;BME280;45298;54.918;73.504;2023-04-07T13:24:21;100929.31;;;-4.95;42.61
59487;BME280;45298;54.918;73.504;2023-04-07T13:26:50;100952.78;;;-4.84;42.12
59487;BME280;45298;54.918;73.504;2023-04-07T13:29:19;100958.69;;;-4.92;43.02
59487;BME280;45298;54.918;73.504;2023-04-07T13:31:48;100850.66;;;-5.62;42.73
59487;BME280;45298;54.918;73.504;2023-04-07T13:34:17;100953.09;;;-5.17;42.11
59487;BME280;45298;54.918;73.504;2023-04-07T13:36:47;100943.47;;;-5.25;42.28
59487;BME280;45298;54.918;73.504;2023-04-07T13:39:15;100943.47;;;-5.25;42.20
59487;BME280;45298;54.918;73.504;2023-04-07T13:41:44;100949.28;;;-5.37;42.61
59487;BME280;45298;54.918;73.504;2023-04-07T13:44:14;100950.13;;;-5.40;42.83
59487;BME280;45298;54.918;73.504;2023-04-07T13:46:46;100974.34;;;-5.35;43.23
59487;BME280;45298;54.918;73.504;2023-04-07T13:49:16;100959.47;;;-5.47;43.13
59487;BME280;45298;54.918;73.504;2023-04-07T13:51:45;100983.72;;;-5.41;42.36
59487;BME280;45298;54.918;73.504;2023-04-07T13:54:15;100993.22;;;-5.40;43.48
59487;BME280;45298;54.918;73.504;2023-04-07T13:56:46;100897.22;;;-6.08;43.84
59487;BME280;45298;54.918;73.504;2023-04-07T13:59:18;101002.53;;;-5.47;43.29
59487;BME280;45298;54.918;73.504;2023-04-07T14:01:47;100977.03;;;-5.76;43.80
59487;BME280;45298;54.918;73.504;2023-04-07T14:04:16;100991.69;;;-5.73;43.99
59487;BME280;45298;54.918;73.504;2023-04-07T14:06:45;101038.50;;;-5.61;43.46
59487;BME280;45298;54.918;73.504;2023-04-07T14:09:14;101035.75;;;-5.69;42.83
59487;BME280;45298;54.918;73.504;2023-04-07T14:11:45;101028.72;;;-5.74;43.53
59487;BME280;45298;54.918;73.504;2023-04-07T14:14:14;101000.72;;;-5.96;42.33
59487;BME280;45298;54.918;73.504;2023-04-07T14:16:43;101010.13;;;-5.99;43.27
59487;BME280;45298;54.918;73.504;2023-04-07T14:19:12;101042.31;;;-5.83;42.68
59487;BME280;45298;54.918;73.504;2023-04-07T14:21:41;101034.47;;;-5.89;43.94
59487;BME280;45298;54.918;73.504;2023-04-07T14:24:09;101010.78;;;-6.10;43.92
59487;BME280;45298;54.918;73.504;2023-04-07T14:26:39;101025.31;;;-6.15;42.67
59487;BME280;45298;54.918;73.504;2023-04-07T14:29:08;101062.75;;;-5.94;44.22
59487;BME280;45298;54.918;73.504;2023-04-07T14:31:37;101040.75;;;-6.18;43.29
59487;BME280;45298;54.918;73.504;2023-04-07T14:34:07;101045.84;;;-6.21;42.81
59487;BME280;45298;54.918;73.504;2023-04-07T14:36:36;101017.88;;;-6.39;43.56
59487;BME280;45298;54.918;73.504;2023-04-07T14:39:05;101042.38;;;-6.23;42.98
59487;BME280;45298;54.918;73.504;2023-04-07T14:41:34;101076.06;;;-6.17;43.10
59487;BME280;45298;54.918;73.504;2023-04-07T14:44:03;101079.63;;;-6.12;43.85
59487;BME280;45298;54.918;73.504;2023-04-07T14:46:32;101073.34;;;-6.23;43.54
59487;BME280;45298;54.918;73.504;2023-04-07T14:49:01;101075.16;;;-6.19;44.84
59487;BME280;45298;54.918;73.504;2023-04-07T14:51:30;101094.22;;;-6.14;44.13
59487;BME280;45298;54.918;73.504;2023-04-07T14:53:59;101057.28;;;-6.46;43.42
59487;BME280;45298;54.918;73.504;2023-04-07T14:56:28;101104.25;;;-6.26;44.02
59487;BME280;45298;54.918;73.504;2023-04-07T14:58:57;101112.84;;;-6.27;44.05
59487;BME280;45298;54.918;73.504;2023-04-07T15:01:26;101007.06;;;-6.97;44.04
59487;BME280;45298;54.918;73.504;2023-04-07T15:03:55;101100.41;;;-6.42;43.90
59487;BME280;45298;54.918;73.504;2023-04-07T15:06:26;101087.16;;;-6.56;43.66